Time;durP1;ratioP1;P1;durP2;ratioP2;P2;SDS_P1;SDS_P2;PMS_P1;PMS_P2;Temp;Humidity;BMP_temperature;BMP_pressure;BME280_temperature;BME280_humidity;BME280_pressure;Samples;Min_cycle;Max_cycle;Signal;HPM_P1;HPM_P2
2022/05/20 00:01:09;;;;;;;2.73;2.47;;;;;;;-143.84;62.25;45068.13;5089417;28;20574;-74
2022/05/20 00:03:40;;;;;;;3.83;3.20;;;;;;;-143.84;62.15;45085.25;5088953;28;20488;-74
2022/05/20 00:06:07;;;;;;;3.37;2.77;;;;;;;-143.84;61.95;45075.72;5089383;28;20516;-74
2022/05/20 00:08:34;;;;;;;7.90;2.97;;;;;;;-143.84;61.92;45077.63;5089603;28;20473;-74
2022/05/20 00:11:02;;;;;;;3.30;2.50;;;;;;;-143.84;61.72;45071.91;5089536;28;20451;-74
2022/05/20 00:13:29;;;;;;;4.30;2.30;;;;;;;-143.84;61.94;45077.63;5089442;28;20438;-74
2022/05/20 00:15:57;;;;;;;8.60;2.70;;;;;;;-143.84;62.01;45062.41;5089908;28;20442;-74
2022/05/20 00:18:24;;;;;;;2.97;2.77;;;;;;;-143.84;61.89;45092.88;5089597;28;20463;-74
2022/05/20 00:20:53;;;;;;;3.03;2.50;;;;;;;-143.84;61.97;45073.81;5089410;28;20468;-74
2022/05/20 00:23:20;;;;;;;2.97;2.77;;;;;;;-143.84;61.72;45075.72;5089268;28;20443;-74
2022/05/20 00:25:47;;;;;;;2.53;2.27;;;;;;;-143.84;61.43;45056.69;5089223;28;20443;-74
2022/05/20 00:28:19;;;;;;;4.57;3.30;;;;;;;-143.84;60.79;45071.91;5089521;28;20433;-74
2022/05/20 00:30:47;;;;;;;3.70;2.90;;;;;;;-143.84;59.96;45077.63;5089230;28;20500;-74
2022/05/20 00:33:15;;;;;;;2.83;2.60;;;;;;;-143.84;59.47;45075.72;5089328;28;20519;-74
2022/05/20 00:35:43;;;;;;;4.83;3.10;;;;;;;-143.84;59.50;45083.34;5089471;28;20504;-74
2022/05/20 00:38:11;;;;;;;9.20;3.00;;;;;;;-143.84;59.24;45071.91;5089140;28;20460;-74
2022/05/20 00:40:38;;;;;;;2.33;2.23;;;;;;;-143.84;59.04;45083.34;5089027;28;20536;-74
2022/05/20 00:43:11;;;;;;;2.60;2.40;;;;;;;-143.84;58.33;45079.53;5089182;28;20828;-74
2022/05/20 00:45:38;;;;;;;3.30;2.47;;;;;;;-143.84;58.00;45090.97;5089133;28;20437;-74
2022/05/20 00:48:06;;;;;;;5.33;3.07;;;;;;;-143.84;57.85;45062.41;5089298;28;20477;-74
2022/05/20 00:50:34;;;;;;;5.53;2.17;;;;;;;-143.84;57.62;45077.63;5089074;28;20957;-74
2022/05/20 00:53:03;;;;;;;2.73;2.53;;;;;;;-143.84;57.17;45073.81;5088899;28;20432;-75
2022/05/20 00:55:31;;;;;;;2.80;2.60;;;;;;;-143.84;56.77;45070.00;5089263;28;20439;-74
2022/05/20 00:58:04;;;;;;;5.97;2.50;;;;;;;-143.84;57.19;45083.34;5089312;28;20444;-74
2022/05/20 01:00:33;;;;;;;7.43;2.70;;;;;;;-143.84;55.81;45050.97;5089098;28;21130;-74
2022/05/20 01:03:05;;;;;;;2.57;2.37;;;;;;;-143.84;56.01;45085.25;5088822;28;20483;-75
2022/05/20 01:05:37;;;;;;;3.07;2.47;;;;;;;-143.84;55.57;45075.72;5089344;28;21226;-75
2022/05/20 01:08:07;;;;;;;2.50;2.30;;;;;;;-143.84;55.71;45087.16;5088864;28;21016;-74
2022/05/20 01:10:36;;;;;;;5.30;2.70;;;;;;;-143.84;55.51;45064.31;5088827;28;20448;-74
2022/05/20 01:13:03;;;;;;;2.90;2.53;;;;;;;-143.84;55.27;45066.22;5089187;28;21079;-75
2022/05/20 01:15:30;;;;;;;5.43;2.90;;;;;;;-143.84;55.21;45050.97;5088663;28;20485;-74
2022/05/20 01:17:59;;;;;;;9.17;2.57;;;;;;;-143.84;55.48;45060.50;5088698;28;21011;-75
2022/05/20 01:20:29;;;;;;;5.73;2.80;;;;;;;-143.84;54.75;45058.59;5092612;28;20479;-75
2022/05/20 01:23:08;;;;;;;3.40;2.40;;;;;;;-143.84;54.87;45045.25;5092640;28;20796;-75
2022/05/20 01:25:38;;;;;;;2.77;2.63;;;;;;;-143.84;54.32;45089.06;5092883;28;20443;-75
2022/05/20 01:28:06;;;;;;;2.30;2.13;;;;;;;-143.84;54.12;45085.25;5093331;28;20435;-74
2022/05/20 01:30:33;;;;;;;4.20;2.73;;;;;;;-143.84;54.28;45071.91;5093156;28;20431;-75
2022/05/20 01:33:04;;;;;;;3.50;3.20;;;;;;;-143.84;53.80;45062.41;5093069;28;20439;-75
2022/05/20 01:35:36;;;;;;;5.73;2.97;;;;;;;-143.84;53.75;45073.81;5092917;28;20447;-74
2022/05/20 01:38:06;;;;;;;3.43;2.20;;;;;;;-143.84;53.72;45090.97;5092745;28;20858;-75
2022/05/20 01:40:42;;;;;;;2.73;2.53;;;;;;;-143.84;53.55;45054.78;5092900;28;20483;-75
2022/05/20 01:43:15;;;;;;;2.63;2.43;;;;;;;-143.84;53.15;45068.13;5092480;28;20450;-74
2022/05/20 01:45:47;;;;;;;17.57;3.23;;;;;;;-143.84;52.50;45073.81;5092552;28;20434;-75
2022/05/20 01:48:24;;;;;;;5.43;2.70;;;;;;;-143.84;52.38;45068.13;5091995;28;20443;-75
2022/05/20 01:50:54;;;;;;;5.73;2.07;;;;;;;-143.84;52.13;45052.88;5092353;28;20435;-75
2022/05/20 01:53:30;;;;;;;4.17;2.93;;;;;;;-143.84;51.71;45073.81;5092585;28;20960;-75
2022/05/20 01:56:04;;;;;;;5.17;2.80;;;;;;;-143.84;51.67;45066.22;5092947;28;20458;-75
2022/05/20 01:58:39;;;;;;;2.40;2.20;;;;;;;-143.84;51.53;45075.72;5092052;28;20859;-74
2022/05/20 02:01:14;;;;;;;3.50;2.57;;;;;;;-143.84;51.29;45050.97;5091889;28;20470;-74
2022/05/20 02:03:47;;;;;;;9.50;2.70;;;;;;;-143.84;51.10;45049.06;5091813;28;21000;-75
2022/05/20 02:06:20;;;;;;;6.00;3.17;;;;;;;-143.84;50.91;45060.50;5092510;28;20435;-74
2022/05/20 02:08:52;;;;;;;6.40;2.63;;;;;;;-143.84;50.98;45066.22;5092225;28;20470;-74
2022/05/20 02:11:24;;;;;;;3.73;2.37;;;;;;;-143.84;50.55;45037.66;5092138;28;20497;-74
2022/05/20 02:13:57;;;;;;;3.00;2.80;;;;;;;-143.84;50.48;45068.13;5091861;28;20468;-74
2022/05/20 02:16:32;;;;;;;3.13;2.23;;;;;;;-143.84;50.18;45060.50;5091815;28;20436;-74
2022/05/20 02:19:06;;;;;;;2.83;2.57;;;;;;;-143.84;50.34;45064.31;5091748;28;20501;-75
2022/05/20 02:21:36;;;;;;;2.73;2.53;;;;;;;-143.84;49.92;45064.31;5092102;28;20825;-75
2022/05/20 02:24:09;;;;;;;3.40;2.50;;;;;;;-143.84;49.88;45049.06;5092077;28;21120;-75
2022/05/20 02:26:42;;;;;;;2.83;2.63;;;;;;;-143.84;50.19;45066.22;5091965;28;20498;-75
2022/05/20 02:29:13;;;;;;;4.23;2.90;;;;;;;-143.84;49.88;45056.69;5091680;28;20488;-75
2022/05/20 02:31:44;;;;;;;4.27;2.40;;;;;;;-143.84;49.41;45073.81;5092055;28;20439;-75
2022/05/20 02:34:12;;;;;;;3.27;2.13;;;;;;;-143.84;49.99;45068.13;5091460;28;20447;-74
2022/05/20 02:36:40;;;;;;;6.80;2.33;;;;;;;-143.84;49.52;45037.66;5091460;28;21318;-74
2022/05/20 02:39:15;;;;;;;2.07;1.90;;;;;;;-143.84;49.39;45075.72;5091352;28;20527;-74
2022/05/20 02:41:44;;;;;;;3.00;2.00;;;;;;;-143.84;49.14;45064.31;5091051;28;20584;-74
2022/05/20 02:44:11;;;;;;;3.10;2.50;;;;;;;-143.84;48.96;45045.25;5090445;28;20443;-74
2022/05/20 02:46:39;;;;;;;2.60;2.40;;;;;;;-143.84;48.97;45054.78;5091510;28;20447;-74
2022/05/20 02:49:07;;;;;;;4.30;2.67;;;;;;;-143.84;48.59;45077.63;5091431;28;20428;-74
2022/05/20 02:51:34;;;;;;;3.20;2.47;;;;;;;-143.84;48.58;45037.66;5091173;28;20509;-74
2022/05/20 02:54:02;;;;;;;4.60;2.67;;;;;;;-143.84;48.37;45070.00;5091175;28;20440;-74
2022/05/20 02:56:30;;;;;;;2.30;2.20;;;;;;;-143.84;48.46;45052.88;5091510;28;20447;-75
2022/05/20 03:04:27;;;;;;;2.40;2.17;;;;;;;-143.84;48.72;45075.72;5090946;28;20441;-74
2022/05/20 03:06:54;;;;;;;4.97;2.30;;;;;;;-143.84;48.26;45089.06;5090137;28;20444;-74
2022/05/20 03:09:24;;;;;;;3.20;2.20;;;;;;;-143.84;48.01;45060.50;5090134;28;20881;-74
2022/05/20 03:11:54;;;;;;;8.20;2.40;;;;;;;-143.84;47.82;45066.22;5098628;28;21065;-74
2022/05/20 03:14:23;;;;;;;3.20;2.50;;;;;;;-143.84;47.93;45056.69;5111390;28;21218;-74
2022/05/20 03:16:50;;;;;;;3.30;2.53;;;;;;;-143.84;47.49;45054.78;5111280;27;21011;-75
2022/05/20 03:19:18;;;;;;;2.40;2.20;;;;;;;-143.84;47.51;45075.72;5111283;28;20446;-75
2022/05/20 03:21:45;;;;;;;3.87;2.37;;;;;;;-143.84;47.35;45054.78;5097171;28;21017;-74
2022/05/20 03:24:13;;;;;;;3.47;2.20;;;;;;;-143.84;46.64;45079.53;5089544;28;20933;-74
2022/05/20 03:26:40;;;;;;;9.00;2.87;;;;;;;-143.84;46.04;45049.06;5093265;28;20436;-73
2022/05/20 03:29:09;;;;;;;3.30;2.30;;;;;;;-143.84;45.46;45052.88;5097811;28;20468;-73
2022/05/20 03:31:38;;;;;;;2.17;1.90;;;;;;;-143.84;44.83;45045.25;5099612;28;20927;-72
2022/05/20 03:34:06;;;;;;;3.77;2.43;;;;;;;-143.84;43.79;45054.78;5097753;28;20432;-72
2022/05/20 03:36:35;;;;;;;2.47;2.23;;;;;;;-143.84;43.45;45041.44;5104007;28;20441;-74
2022/05/20 03:39:03;;;;;;;4.50;1.60;;;;;;;-143.84;42.39;45031.94;5092953;28;20434;-74
2022/05/20 03:41:30;;;;;;;3.23;1.70;;;;;;;-143.84;41.87;45020.50;5101092;28;20471;-72
2022/05/20 03:43:57;;;;;;;4.20;2.17;;;;;;;-143.84;40.53;45039.53;5098244;28;20447;-74
2022/05/20 03:46:26;;;;;;;2.20;2.03;;;;;;;-143.84;38.71;45014.78;5097899;28;20448;-71
2022/05/20 03:48:54;;;;;;;2.47;1.40;;;;;;;-143.84;37.21;45012.88;5094488;28;20444;-74
2022/05/20 03:51:21;;;;;;;2.10;1.90;;;;;;;-143.84;36.21;45014.78;5090114;28;20451;-72
2022/05/20 03:53:48;;;;;;;3.87;2.00;;;;;;;-143.84;35.64;45001.47;5089602;28;20443;-72
2022/05/20 03:56:15;;;;;;;3.13;1.70;;;;;;;-143.84;34.06;44978.63;5090145;28;20431;-73
2022/05/20 03:58:42;;;;;;;7.10;1.77;;;;;;;-143.84;33.84;45003.38;5090618;28;20936;-73
2022/05/20 04:03:58;;;;;;;1.33;1.23;;;;;;;-143.84;32.33;44955.75;5088166;28;20532;-72
2022/05/20 04:06:25;;;;;;;1.50;1.40;;;;;;;-143.84;32.24;44991.94;5090207;28;20440;-72
2022/05/20 04:08:53;;;;;;;1.90;1.70;;;;;;;-143.84;32.32;44969.09;5090480;28;21012;-72
2022/05/20 04:11:20;;;;;;;5.17;1.73;;;;;;;-143.84;31.80;44978.63;5090293;28;20447;-72
2022/05/20 04:13:47;;;;;;;5.40;1.53;;;;;;;-143.84;31.63;44957.66;5090570;28;20786;-72
2022/05/20 04:16:16;;;;;;;2.27;1.20;;;;;;;-143.84;31.21;44961.47;5089939;28;20445;-72
2022/05/20 04:18:44;;;;;;;6.77;1.60;;;;;;;-143.84;31.44;44972.91;5089885;28;20444;-72
2022/05/20 04:21:15;;;;;;;2.20;1.13;;;;;;;-143.84;31.43;44951.97;5090394;28;20475;-72
2022/05/20 04:23:43;;;;;;;3.10;1.87;;;;;;;-143.84;31.09;44946.25;5090786;28;20444;-73
2022/05/20 04:26:11;;;;;;;1.87;1.50;;;;;;;-143.84;31.02;44976.72;5091006;28;20443;-73
2022/05/20 04:28:39;;;;;;;2.53;1.60;;;;;;;-143.84;31.24;44946.25;5090621;28;20440;-73
2022/05/20 04:31:08;;;;;;;1.60;1.50;;;;;;;-143.84;30.75;44959.56;5090153;28;20433;-73
2022/05/20 04:33:35;;;;;;;4.93;2.03;;;;;;;-143.84;31.52;44969.09;5089986;28;20987;-73
2022/05/20 04:36:03;;;;;;;1.40;1.30;;;;;;;-143.84;31.66;44988.13;5090065;28;20509;-73
2022/05/20 04:38:32;;;;;;;5.53;1.80;;;;;;;-143.84;31.39;44995.75;5090311;28;20492;-73
2022/05/20 04:49:13;;;;;;;1.77;1.67;;;;;;;-143.84;31.57;44976.72;5089004;28;20427;-73
2022/05/20 04:51:41;;;;;;;6.63;1.60;;;;;;;-143.84;31.77;44972.91;5088495;28;20436;-72
2022/05/20 04:56:55;;;;;;;3.03;1.40;;;;;;;-143.84;30.74;44957.66;5089293;28;20431;-72
2022/05/20 04:59:23;;;;;;;1.53;1.37;;;;;;;-143.84;31.79;44969.09;5089176;28;20447;-72
2022/05/20 05:01:51;;;;;;;1.43;1.33;;;;;;;-143.84;31.82;44959.56;5089053;28;20491;-72
2022/05/20 05:04:18;;;;;;;1.63;1.30;;;;;;;-143.84;31.70;44959.56;5089570;28;20511;-72
2022/05/20 05:06:46;;;;;;;2.20;1.60;;;;;;;-143.84;31.52;44986.22;5089452;28;20440;-72
2022/05/20 05:09:16;;;;;;;1.63;1.53;;;;;;;-143.84;31.58;44950.06;5089214;28;20458;-73
2022/05/20 05:11:43;;;;;;;3.37;1.37;;;;;;;-143.84;31.46;44931.00;5089559;28;20442;-72
2022/05/20 05:14:12;;;;;;;6.50;1.63;;;;;;;-143.84;30.70;44931.00;5089568;28;20439;-72
2022/05/20 05:16:39;;;;;;;1.47;1.33;;;;;;;-143.84;31.39;44955.75;5089535;28;20440;-73
2022/05/20 05:19:07;;;;;;;1.90;1.80;;;;;;;-143.84;31.79;44965.28;5089387;28;20448;-73
2022/05/20 05:21:35;;;;;;;1.40;1.30;;;;;;;-143.84;31.20;44976.72;5089302;28;20832;-73
2022/05/20 05:24:02;;;;;;;3.53;1.80;;;;;;;-143.84;31.57;44942.44;5089632;28;20488;-72
2022/05/20 05:26:34;;;;;;;2.33;1.50;;;;;;;-143.84;30.92;44944.34;5088778;28;21170;-73
2022/05/20 05:29:02;;;;;;;3.37;1.30;;;;;;;-143.84;31.40;44936.72;5088458;28;20444;-73
2022/05/20 05:31:29;;;;;;;3.63;1.50;;;;;;;-143.84;30.75;44957.66;5089284;28;20471;-72
2022/05/20 05:33:56;;;;;;;1.37;1.23;;;;;;;-143.84;30.81;44974.81;5089204;28;20446;-73
2022/05/20 05:36:23;;;;;;;1.23;1.13;;;;;;;-143.84;30.61;44961.47;5089284;28;20440;-72
2022/05/20 05:38:50;;;;;;;3.70;1.33;;;;;;;-143.84;30.54;44942.44;5089087;28;20436;-73
2022/05/20 05:41:20;;;;;;;1.30;0.90;;;;;;;-143.84;30.49;44942.44;5089097;28;20484;-73
2022/05/20 05:43:49;;;;;;;1.33;0.93;;;;;;;-143.84;30.50;44955.75;5089442;28;20446;-73
2022/05/20 05:46:16;;;;;;;1.77;1.33;;;;;;;-143.84;30.05;44932.91;5088980;28;20448;-72
2022/05/20 05:48:44;;;;;;;1.23;1.13;;;;;;;-143.84;29.84;44931.00;5089205;28;20440;-73
2022/05/20 05:51:11;;;;;;;1.67;1.30;;;;;;;-143.84;29.59;44959.56;5088706;28;20942;-73
2022/05/20 05:53:38;;;;;;;1.60;1.10;;;;;;;-143.84;30.23;44969.09;5088858;28;20493;-73
2022/05/20 05:56:09;;;;;;;1.63;1.33;;;;;;;-143.84;29.51;44948.16;5088907;28;20448;-72
2022/05/20 05:58:37;;;;;;;6.90;1.30;;;;;;;-143.84;29.81;44931.00;5088677;28;20809;-72
2022/05/20 06:01:07;;;;;;;3.00;1.40;;;;;;;-143.84;29.73;44911.97;5088548;28;20558;-73
2022/05/20 06:03:34;;;;;;;3.93;1.30;;;;;;;-143.84;30.29;44919.59;5088660;28;20482;-73
2022/05/20 06:06:02;;;;;;;2.53;1.70;;;;;;;-143.84;30.19;44944.34;5091642;28;20432;-73
2022/05/20 06:08:29;;;;;;;2.57;1.37;;;;;;;-143.84;29.90;44911.97;5092170;28;20501;-73
2022/05/20 06:10:56;;;;;;;3.50;1.53;;;;;;;-143.84;29.33;44911.97;5092015;28;20451;-73
2022/05/20 06:13:25;;;;;;;2.80;1.23;;;;;;;-143.84;29.31;44927.19;5091569;28;21026;-73
2022/05/20 06:15:55;;;;;;;1.87;1.33;;;;;;;-143.84;29.29;44900.53;5091679;28;20482;-72
2022/05/20 06:18:24;;;;;;;2.00;1.80;;;;;;;-143.84;29.86;44913.88;5091500;28;20500;-73
2022/05/20 06:20:51;;;;;;;1.70;1.60;;;;;;;-143.84;30.41;44934.81;5092151;28;20440;-73
2022/05/20 06:23:19;;;;;;;2.50;1.87;;;;;;;-143.84;30.00;44936.72;5091991;28;20443;-73
2022/05/20 06:25:46;;;;;;;8.83;1.50;;;;;;;-143.84;30.70;44911.97;5091914;28;20975;-73
2022/05/20 06:28:16;;;;;;;4.60;1.63;;;;;;;-143.84;30.82;44938.63;5092068;28;20462;-73
2022/05/20 06:30:43;;;;;;;2.23;1.70;;;;;;;-143.84;30.34;44946.25;5092135;28;20451;-73
2022/05/20 06:33:11;;;;;;;3.50;1.30;;;;;;;-143.84;30.49;44915.78;5092017;28;20436;-73
2022/05/20 06:41:09;;;;;;;2.23;1.20;;;;;;;-143.84;29.75;44921.50;5091055;28;20559;-72
2022/05/20 06:43:37;;;;;;;1.53;1.20;;;;;;;-143.84;29.70;44904.34;5091637;28;20989;-73
2022/05/20 06:46:05;;;;;;;4.57;1.30;;;;;;;-143.84;30.19;44881.50;5091364;28;20964;-73
2022/05/20 06:48:45;;;;;;;1.50;1.27;;;;;;;-143.84;30.19;44915.78;5091411;28;21257;-73
2022/05/20 06:51:15;;;;;;;4.93;1.57;;;;;;;-143.84;30.16;44915.78;5091495;28;20861;-77
2022/05/20 06:53:43;;;;;;;1.57;1.47;;;;;;;-143.84;29.99;44917.69;5092228;28;20440;-77
2022/05/20 06:56:11;;;;;;;2.40;1.50;;;;;;;-143.84;29.90;44931.00;5090802;28;20478;-77
2022/05/20 06:58:38;;;;;;;3.50;1.43;;;;;;;-143.84;29.40;44889.13;5092143;28;20440;-78
2022/05/20 07:01:06;;;;;;;1.30;1.03;;;;;;;-143.84;29.21;44881.50;5091618;28;20444;-77
2022/05/20 07:03:33;;;;;;;11.30;2.13;;;;;;;-143.84;30.89;44900.53;5092049;28;21282;-78
2022/05/20 07:06:02;;;;;;;9.37;5.20;;;;;;;-143.84;32.31;44906.25;5091771;28;21007;-78
2022/05/20 07:08:30;;;;;;;11.20;7.13;;;;;;;-143.84;32.34;44911.97;5091976;28;21066;-78
2022/05/20 07:10:57;;;;;;;11.10;5.40;;;;;;;-143.84;32.07;44908.16;5092368;28;20439;-78
2022/05/20 07:13:24;;;;;;;10.77;6.63;;;;;;;-143.84;32.23;44927.19;5092041;28;20446;-78
2022/05/20 07:15:52;;;;;;;11.00;5.67;;;;;;;-143.84;32.57;44902.44;5090995;28;20435;-78
2022/05/20 07:18:19;;;;;;;10.60;7.47;;;;;;;-143.84;32.46;44927.19;5091832;28;20856;-78
2022/05/20 07:20:46;;;;;;;14.47;9.87;;;;;;;-143.84;34.05;44906.25;5091363;28;20431;-77
2022/05/20 07:23:13;;;;;;;24.57;11.40;;;;;;;-143.84;34.88;44923.41;5078601;28;20471;-78
2022/05/20 07:25:41;;;;;;;20.07;12.27;;;;;;;-143.84;35.04;44898.66;5076262;28;20868;-77
2022/05/20 07:28:09;;;;;;;27.87;14.53;;;;;;;-143.84;35.49;44923.41;5075227;28;20456;-76
2022/05/20 07:30:37;;;;;;;21.63;13.40;;;;;;;-143.84;35.73;44919.59;5072219;28;20440;-77
2022/05/20 07:33:04;;;;;;;19.43;13.73;;;;;;;-143.84;36.02;44940.53;5072680;28;20448;-77
2022/05/20 07:35:31;;;;;;;20.93;13.90;;;;;;;-143.84;35.63;44908.16;5072449;28;21041;-77
2022/05/20 07:37:58;;;;;;;11.23;7.80;;;;;;;-143.84;35.53;44925.31;5080888;28;20954;-77
2022/05/20 07:40:26;;;;;;;21.33;10.60;;;;;;;-143.84;36.00;44938.63;5087881;28;20451;-77
2022/05/20 07:42:55;;;;;;;13.57;8.73;;;;;;;-143.84;36.10;44913.88;5089117;28;20484;-77
2022/05/20 07:45:22;;;;;;;16.43;11.40;;;;;;;-143.84;35.97;44932.91;5085343;28;20467;-77
2022/05/20 07:47:50;;;;;;;28.67;9.83;;;;;;;-143.84;35.48;44921.50;5074466;28;20451;-77
2022/05/20 07:50:18;;;;;;;14.87;8.97;;;;;;;-143.84;35.79;44913.88;5084416;28;20905;-77
2022/05/20 07:55:35;;;;;;;14.13;4.93;;;;;;;-143.84;33.60;44929.09;5081061;28;20453;-77
2022/05/20 07:58:07;;;;;;;20.13;6.30;;;;;;;-143.84;34.58;44910.06;5079791;28;20456;-77
2022/05/20 08:00:35;;;;;;;14.43;6.70;;;;;;;-143.84;34.19;44911.97;5089403;28;20452;-77
2022/05/20 08:03:03;;;;;;;9.83;5.30;;;;;;;-143.84;35.91;44900.53;5101116;28;20950;-77
2022/05/20 08:05:31;;;;;;;3.70;3.40;;;;;;;-143.84;34.91;44908.16;5108935;28;20508;-77
2022/05/20 08:08:01;;;;;;;10.30;6.50;;;;;;;-143.84;35.07;44911.97;5089862;28;20451;-78
2022/05/20 08:10:30;;;;;;;13.43;6.63;;;;;;;-143.84;35.08;44910.06;5109429;28;20708;-77
2022/05/20 08:12:58;;;;;;;10.90;5.93;;;;;;;-143.84;34.22;44904.34;5108043;28;20454;-77
2022/05/20 08:15:27;;;;;;;15.00;6.30;;;;;;;-143.84;34.61;44898.66;5109359;28;20451;-77
2022/05/20 08:17:55;;;;;;;8.70;5.33;;;;;;;-143.84;34.09;44917.69;5107995;28;20560;-77
2022/05/20 08:20:28;;;;;;;14.67;5.27;;;;;;;-143.84;33.73;44904.34;5107031;28;21240;-77
2022/05/20 08:22:56;;;;;;;7.90;5.13;;;;;;;-143.84;33.78;44906.25;5106624;28;20486;-77
2022/05/20 08:25:24;;;;;;;7.67;4.47;;;;;;;-143.84;35.48;44911.97;5106322;28;21257;-77
2022/05/20 08:27:52;;;;;;;23.23;6.50;;;;;;;-143.84;34.91;44908.16;5108096;28;20447;-77
2022/05/20 08:30:22;;;;;;;8.93;6.20;;;;;;;-143.84;35.40;44917.69;5108559;28;20439;-77
2022/05/20 08:32:51;;;;;;;7.90;6.83;;;;;;;-143.84;36.02;44942.44;5108266;28;20450;-77
2022/05/20 08:35:20;;;;;;;10.17;7.57;;;;;;;-143.84;35.04;44915.78;5109328;28;20455;-77
2022/05/20 08:37:49;;;;;;;13.80;7.30;;;;;;;-143.84;34.90;44921.50;5108609;28;20461;-77
2022/05/20 08:40:21;;;;;;;21.73;8.37;;;;;;;-143.84;35.10;44950.06;5108635;28;20450;-77
2022/05/20 08:42:51;;;;;;;11.93;6.90;;;;;;;-143.84;36.67;44919.59;5108852;28;21098;-77
2022/05/20 08:45:23;;;;;;;26.43;6.77;;;;;;;-143.84;35.54;44902.44;5108549;28;20451;-77
2022/05/20 08:47:53;;;;;;;7.10;5.83;;;;;;;-143.84;36.50;44917.69;5108636;28;20450;-77
2022/05/20 08:50:24;;;;;;;12.67;7.17;;;;;;;-143.84;36.30;44938.63;5109438;28;20446;-77
2022/05/20 08:52:54;;;;;;;7.03;6.23;;;;;;;-143.84;36.09;44913.88;5109039;28;20512;-77
2022/05/20 08:55:22;;;;;;;9.10;6.73;;;;;;;-143.84;36.60;44957.66;5108595;28;20514;-77
2022/05/20 08:57:52;;;;;;;8.03;5.30;;;;;;;-143.84;36.36;44936.72;5107940;28;20454;-76
2022/05/20 09:00:20;;;;;;;9.53;5.00;;;;;;;-143.84;37.09;44934.81;5108230;28;20495;-76
2022/05/20 09:02:47;;;;;;;7.83;5.83;;;;;;;-143.84;36.10;44917.69;5108033;28;20559;-77
2022/05/20 09:05:21;;;;;;;7.07;5.73;;;;;;;-143.84;35.67;44938.63;5108602;28;20453;-78
2022/05/20 09:08:02;;;;;;;7.57;4.50;;;;;;;-143.84;34.69;44906.25;5108151;28;20462;-77
2022/05/20 09:10:36;;;;;;;6.13;3.80;;;;;;;-143.84;34.02;44934.81;5107101;28;20988;-77
2022/05/20 09:13:09;;;;;;;5.40;3.40;;;;;;;-143.84;35.55;44917.69;5108154;28;20451;-77
2022/05/20 09:15:46;;;;;;;11.07;4.50;;;;;;;-143.84;34.51;44892.94;5107948;28;20443;-77
2022/05/20 09:18:20;;;;;;;6.57;4.10;;;;;;;-143.84;33.69;44921.50;5106367;28;20470;-77
2022/05/20 09:20:52;;;;;;;4.00;3.43;;;;;;;-143.84;33.60;44925.31;5106633;28;21134;-78
2022/05/20 09:23:21;;;;;;;6.17;2.60;;;;;;;-143.84;34.28;44950.06;5107845;28;20486;-77
2022/05/20 09:26:01;;;;;;;5.20;2.93;;;;;;;-143.84;34.34;44917.69;5108385;28;20525;-77
2022/05/20 09:28:40;;;;;;;11.40;3.70;;;;;;;-143.84;34.18;44925.31;5107152;28;20458;-77
2022/05/20 09:31:16;;;;;;;4.97;4.03;;;;;;;-143.84;33.87;44927.19;5108056;28;20455;-77
2022/05/20 09:33:52;;;;;;;4.57;3.20;;;;;;;-143.84;34.51;44915.78;5107985;28;20458;-77
2022/05/20 09:36:49;;;;;;;2.80;2.60;;;;;;;-143.84;34.56;44923.41;5105623;28;20445;-77
2022/05/20 09:39:20;;;;;;;10.97;2.83;;;;;;;-143.84;33.28;44925.31;5091273;28;20457;-77
2022/05/20 09:41:49;;;;;;;5.93;2.83;;;;;;;-143.84;32.40;44898.66;5112462;28;21237;-77
2022/05/20 09:44:19;;;;;;;5.17;2.70;;;;;;;-143.84;32.59;44936.72;5112001;28;20482;-77
2022/05/20 09:46:52;;;;;;;3.40;2.40;;;;;;;-143.84;32.26;44931.00;5112491;28;20488;-77
2022/05/20 09:49:27;;;;;;;2.50;2.00;;;;;;;-143.84;32.46;44915.78;5111483;28;20443;-76
2022/05/20 09:51:59;;;;;;;4.33;2.33;;;;;;;-143.84;32.49;44915.78;5111212;28;20446;-76
2022/05/20 09:54:34;;;;;;;4.43;2.63;;;;;;;-143.84;31.95;44913.88;5110579;28;20972;-76
2022/05/20 09:57:12;;;;;;;3.10;2.80;;;;;;;-143.84;33.05;44898.66;5111901;28;20936;-78
2022/05/20 09:59:50;;;;;;;6.27;2.63;;;;;;;-143.84;32.01;44911.97;5111732;28;20457;-76
2022/05/20 10:02:24;;;;;;;2.80;2.53;;;;;;;-143.84;32.20;44913.88;5108656;28;20506;-78
2022/05/20 10:05:10;;;;;;;5.70;2.80;;;;;;;-143.84;32.83;44906.25;5110089;28;20511;-77
2022/05/20 10:07:54;;;;;;;5.17;2.60;;;;;;;-143.84;33.43;44896.75;5107358;28;20450;-78
2022/05/20 10:10:30;;;;;;;6.57;3.50;;;;;;;-143.84;32.56;44911.97;5098227;28;20455;-77
2022/05/20 10:13:01;;;;;;;5.43;3.10;;;;;;;-143.84;32.94;44892.94;5099677;28;20503;-73
2022/05/20 10:15:33;;;;;;;3.40;2.97;;;;;;;-143.84;32.49;44892.94;5097424;28;20453;-73
2022/05/20 10:18:10;;;;;;;4.13;2.77;;;;;;;-143.84;32.16;44889.13;5097558;28;20452;-74
2022/05/20 10:20:42;;;;;;;3.03;2.30;;;;;;;-143.84;32.85;44906.25;5111259;28;21002;-73
2022/05/20 10:23:16;;;;;;;13.93;2.73;;;;;;;-143.84;31.59;44900.53;5101635;28;20508;-79
2022/05/20 10:25:51;;;;;;;6.93;2.20;;;;;;;-143.84;32.69;44896.75;5094069;28;20487;-78
2022/05/20 10:34:09;;;;;;;2.40;2.20;;;;;;;-143.84;31.84;44911.97;5110564;28;21324;-77
2022/05/20 10:36:45;;;;;;;2.80;1.90;;;;;;;-143.84;33.50;44917.69;5110664;28;20849;-77
2022/05/20 10:39:26;;;;;;;3.43;1.73;;;;;;;-143.84;34.30;44910.06;5109455;28;20472;-77
2022/05/20 10:42:11;;;;;;;6.43;2.00;;;;;;;-143.84;34.79;44921.50;5109720;28;20455;-77
2022/05/20 10:50:54;;;;;;;2.37;2.17;;;;;;;-143.84;33.59;44885.31;5109772;28;20442;-77
2022/05/20 10:53:35;;;;;;;2.83;2.63;;;;;;;-143.84;35.96;44915.78;5110420;28;20457;-77
2022/05/20 10:56:27;;;;;;;5.53;3.63;;;;;;;-143.84;35.15;44946.25;5110959;28;20447;-77
2022/05/20 10:59:25;;;;;;;3.80;3.50;;;;;;;-143.84;38.21;44919.59;5129751;27;20476;-77
2022/05/20 11:02:04;;;;;;;6.57;2.77;;;;;;;-143.84;38.97;44919.59;5132823;27;20503;-77
2022/05/20 11:05:02;;;;;;;3.63;2.80;;;;;;;-143.84;38.37;44971.00;5132883;27;20441;-77
2022/05/20 11:08:02;;;;;;;2.90;2.60;;;;;;;-143.84;37.50;44940.53;5122593;27;20492;-77
2022/05/20 11:10:45;;;;;;;5.63;2.27;;;;;;;-143.84;37.62;44955.75;5112393;28;20512;-77
2022/05/20 11:13:25;;;;;;;2.73;2.37;;;;;;;-143.84;38.80;44942.44;5112332;28;20856;-77
2022/05/20 11:16:16;;;;;;;3.20;2.90;;;;;;;-143.84;39.04;44923.41;5111822;28;20439;-77
2022/05/20 11:19:02;;;;;;;7.33;3.23;;;;;;;-143.84;39.18;44934.81;5111879;28;20443;-77
2022/05/20 11:21:54;;;;;;;3.33;3.00;;;;;;;-143.84;38.06;44925.31;5093774;28;20517;-77
2022/05/20 11:24:48;;;;;;;6.50;3.07;;;;;;;-143.84;39.16;44921.50;5108368;28;20482;-77
2022/05/20 11:27:32;;;;;;;4.07;2.90;;;;;;;-143.84;39.19;44946.25;5111767;28;20451;-77
2022/05/20 11:30:19;;;;;;;6.60;2.70;;;;;;;-143.84;40.14;44965.28;5111166;28;20442;-77
2022/05/20 11:32:59;;;;;;;7.90;3.20;;;;;;;-143.84;39.54;44927.19;5111183;28;20458;-77
2022/05/20 11:35:47;;;;;;;9.63;2.73;;;;;;;-143.84;40.26;44980.53;5111886;28;20859;-77
2022/05/20 11:38:43;;;;;;;5.30;2.70;;;;;;;-143.84;39.18;44969.09;5101550;28;20572;-77
2022/05/20 11:41:28;;;;;;;3.23;2.93;;;;;;;-143.84;39.73;44953.88;5095761;28;20882;-73
2022/05/20 11:44:10;;;;;;;4.83;3.20;;;;;;;-143.84;40.86;44969.09;5095457;28;20483;-72
2022/05/20 11:47:06;;;;;;;5.83;2.67;;;;;;;-143.84;39.57;44980.53;5094271;28;20442;-72
2022/05/20 11:49:51;;;;;;;5.80;2.80;;;;;;;-143.84;41.61;44980.53;5109341;28;21359;-72
2022/05/20 11:52:38;;;;;;;13.80;3.47;;;;;;;-143.84;38.86;44957.66;5110356;28;20481;-72
2022/05/20 11:55:12;;;;;;;4.90;2.60;;;;;;;-143.84;39.12;44965.28;5110391;28;20503;-72
2022/05/20 11:57:44;;;;;;;2.83;2.57;;;;;;;-143.84;39.59;44942.44;5110378;28;20434;-72
2022/05/20 12:00:16;;;;;;;7.10;2.30;;;;;;;-143.84;39.15;44950.06;5110249;28;20446;-72
2022/05/20 12:02:48;;;;;;;4.37;2.30;;;;;;;-143.84;38.67;44942.44;5106987;27;20565;-72
2022/05/20 12:05:20;;;;;;;3.10;2.40;;;;;;;-143.84;39.49;44967.19;5098305;28;20439;-72
2022/05/20 12:07:47;;;;;;;3.00;2.60;;;;;;;-143.84;39.60;44967.19;5100521;28;20431;-72
2022/05/20 12:10:40;;;;;;;8.07;3.70;;;;;;;-143.84;41.06;44980.53;5097024;28;20503;-72
2022/05/20 12:13:16;;;;;;;3.83;2.47;;;;;;;-143.84;39.06;44980.53;5099705;28;20529;-73
2022/05/20 12:15:47;;;;;;;3.30;3.10;;;;;;;-143.84;40.04;44974.81;5108016;28;20451;-73